sensor_id;sensor_type;location;lat;lon;timestamp;P1;durP1;ratioP1;P2;durP2;ratioP2
6386;SDS011;3226;42.162;24.756;2023-04-01T00:02:17;7.53;;;7.23;;
6386;SDS011;3226;42.162;24.756;2023-04-01T00:04:45;7.90;;;7.50;;
6386;SDS011;3226;42.162;24.756;2023-04-01T00:07:15;7.40;;;7.10;;
6386;SDS011;3226;42.162;24.756;2023-04-01T00:09:43;5.77;;;5.57;;
6386;SDS011;3226;42.162;24.756;2023-04-01T00:12:10;7.00;;;6.70;;
6386;SDS011;3226;42.162;24.756;2023-04-01T00:14:38;7.77;;;7.47;;
6386;SDS011;3226;42.162;24.756;2023-04-01T00:17:06;7.23;;;6.93;;
6386;SDS011;3226;42.162;24.756;2023-04-01T00:19:34;7.60;;;7.30;;
6386;SDS011;3226;42.162;24.756;2023-04-01T00:22:03;7.47;;;7.17;;
6386;SDS011;3226;42.162;24.756;2023-04-01T00:24:32;6.47;;;6.17;;
6386;SDS011;3226;42.162;24.756;2023-04-01T00:27:00;6.97;;;6.67;;
6386;SDS011;3226;42.162;24.756;2023-04-01T00:29:28;6.60;;;6.30;;
6386;SDS011;3226;42.162;24.756;2023-04-01T00:31:56;6.70;;;6.40;;
6386;SDS011;3226;42.162;24.756;2023-04-01T00:34:25;6.50;;;6.20;;
6386;SDS011;3226;42.162;24.756;2023-04-01T00:36:53;6.47;;;6.17;;
6386;SDS011;3226;42.162;24.756;2023-04-01T00:39:21;6.83;;;6.53;;
6386;SDS011;3226;42.162;24.756;2023-04-01T00:41:50;6.93;;;6.63;;
6386;SDS011;3226;42.162;24.756;2023-04-01T00:44:19;5.93;;;5.73;;
6386;SDS011;3226;42.162;24.756;2023-04-01T00:46:49;6.87;;;6.57;;
6386;SDS011;3226;42.162;24.756;2023-04-01T00:49:19;6.13;;;5.90;;
6386;SDS011;3226;42.162;24.756;2023-04-01T00:51:50;8.00;;;7.60;;
6386;SDS011;3226;42.162;24.756;2023-04-01T00:54:21;6.33;;;6.07;;
6386;SDS011;3226;42.162;24.756;2023-04-01T00:56:53;7.57;;;7.17;;
6386;SDS011;3226;42.162;24.756;2023-04-01T00:59:25;7.30;;;7.00;;
6386;SDS011;3226;42.162;24.756;2023-04-01T01:01:56;7.27;;;6.97;;
6386;SDS011;3226;42.162;24.756;2023-04-01T01:04:26;6.80;;;6.50;;
6386;SDS011;3226;42.162;24.756;2023-04-01T01:06:57;7.33;;;7.03;;
6386;SDS011;3226;42.162;24.756;2023-04-01T01:09:34;7.20;;;6.90;;
6386;SDS011;3226;42.162;24.756;2023-04-01T01:12:13;7.53;;;7.23;;
6386;SDS011;3226;42.162;24.756;2023-04-01T01:14:45;7.60;;;7.20;;
6386;SDS011;3226;42.162;24.756;2023-04-01T01:17:23;7.73;;;7.43;;
6386;SDS011;3226;42.162;24.756;2023-04-01T01:22:55;7.60;;;7.30;;
6386;SDS011;3226;42.162;24.756;2023-04-01T01:25:40;6.63;;;6.33;;
6386;SDS011;3226;42.162;24.756;2023-04-01T01:28:27;7.37;;;7.07;;
6386;SDS011;3226;42.162;24.756;2023-04-01T01:31:07;7.13;;;6.83;;
6386;SDS011;3226;42.162;24.756;2023-04-01T01:33:48;7.07;;;6.77;;
6386;SDS011;3226;42.162;24.756;2023-04-01T01:36:24;7.00;;;6.70;;
6386;SDS011;3226;42.162;24.756;2023-04-01T01:39:01;7.57;;;7.27;;
6386;SDS011;3226;42.162;24.756;2023-04-01T01:41:30;7.33;;;7.03;;
6386;SDS011;3226;42.162;24.756;2023-04-01T01:44:00;6.93;;;6.63;;
6386;SDS011;3226;42.162;24.756;2023-04-01T01:46:33;7.13;;;6.83;;
6386;SDS011;3226;42.162;24.756;2023-04-01T01:49:02;7.50;;;7.20;;
6386;SDS011;3226;42.162;24.756;2023-04-01T01:51:33;7.10;;;6.80;;
6386;SDS011;3226;42.162;24.756;2023-04-01T01:54:02;7.03;;;6.73;;
6386;SDS011;3226;42.162;24.756;2023-04-01T01:56:30;6.83;;;6.53;;
6386;SDS011;3226;42.162;24.756;2023-04-01T01:59:00;6.90;;;6.60;;
6386;SDS011;3226;42.162;24.756;2023-04-01T02:01:31;6.67;;;6.37;;
6386;SDS011;3226;42.162;24.756;2023-04-01T02:04:02;6.67;;;6.37;;
6386;SDS011;3226;42.162;24.756;2023-04-01T02:06:32;7.70;;;7.40;;
6386;SDS011;3226;42.162;24.756;2023-04-01T02:09:06;6.25;;;6.05;;
6386;SDS011;3226;42.162;24.756;2023-04-01T02:11:37;7.70;;;7.40;;
6386;SDS011;3226;42.162;24.756;2023-04-01T02:14:12;6.33;;;6.07;;
6386;SDS011;3226;42.162;24.756;2023-04-01T02:16:43;7.03;;;6.73;;
6386;SDS011;3226;42.162;24.756;2023-04-01T02:19:17;8.73;;;8.33;;
6386;SDS011;3226;42.162;24.756;2023-04-01T02:21:50;7.77;;;7.47;;
6386;SDS011;3226;42.162;24.756;2023-04-01T02:24:22;6.33;;;6.10;;
6386;SDS011;3226;42.162;24.756;2023-04-01T02:26:54;7.00;;;6.70;;
6386;SDS011;3226;42.162;24.756;2023-04-01T02:29:22;7.23;;;6.93;;
6386;SDS011;3226;42.162;24.756;2023-04-01T02:31:52;7.33;;;7.03;;
6386;SDS011;3226;42.162;24.756;2023-04-01T02:34:22;6.50;;;6.20;;
6386;SDS011;3226;42.162;24.756;2023-04-01T02:36:52;7.97;;;7.67;;
6386;SDS011;3226;42.162;24.756;2023-04-01T02:39:22;7.57;;;7.27;;
6386;SDS011;3226;42.162;24.756;2023-04-01T02:41:52;6.83;;;6.53;;
6386;SDS011;3226;42.162;24.756;2023-04-01T02:44:20;6.47;;;6.20;;
6386;SDS011;3226;42.162;24.756;2023-04-01T02:46:48;6.77;;;6.47;;
6386;SDS011;3226;42.162;24.756;2023-04-01T02:49:16;6.67;;;6.37;;
6386;SDS011;3226;42.162;24.756;2023-04-01T02:51:44;7.70;;;7.40;;
6386;SDS011;3226;42.162;24.756;2023-04-01T02:54:13;7.93;;;7.63;;
6386;SDS011;3226;42.162;24.756;2023-04-01T02:56:41;7.63;;;7.33;;
6386;SDS011;3226;42.162;24.756;2023-04-01T02:59:10;7.97;;;7.67;;
6386;SDS011;3226;42.162;24.756;2023-04-01T03:01:38;8.00;;;7.70;;
6386;SDS011;3226;42.162;24.756;2023-04-01T03:04:06;8.90;;;8.50;;
6386;SDS011;3226;42.162;24.756;2023-04-01T03:06:34;8.67;;;8.27;;
6386;SDS011;3226;42.162;24.756;2023-04-01T03:09:02;7.53;;;7.23;;
6386;SDS011;3226;42.162;24.756;2023-04-01T03:11:32;7.43;;;7.13;;
6386;SDS011;3226;42.162;24.756;2023-04-01T03:14:00;7.87;;;7.57;;
6386;SDS011;3226;42.162;24.756;2023-04-01T03:16:27;8.63;;;8.23;;
6386;SDS011;3226;42.162;24.756;2023-04-01T03:18:55;8.77;;;8.37;;
6386;SDS011;3226;42.162;24.756;2023-04-01T03:21:26;8.13;;;7.83;;
6386;SDS011;3226;42.162;24.756;2023-04-01T03:23:53;7.27;;;6.97;;
6386;SDS011;3226;42.162;24.756;2023-04-01T03:26:21;7.63;;;7.33;;
6386;SDS011;3226;42.162;24.756;2023-04-01T03:28:51;7.73;;;7.43;;
6386;SDS011;3226;42.162;24.756;2023-04-01T03:31:19;8.13;;;7.83;;
6386;SDS011;3226;42.162;24.756;2023-04-01T03:33:49;7.67;;;7.37;;
6386;SDS011;3226;42.162;24.756;2023-04-01T03:36:17;7.70;;;7.40;;
6386;SDS011;3226;42.162;24.756;2023-04-01T03:38:45;7.00;;;6.70;;
6386;SDS011;3226;42.162;24.756;2023-04-01T03:41:13;6.80;;;6.50;;
6386;SDS011;3226;42.162;24.756;2023-04-01T03:43:42;7.20;;;6.90;;
6386;SDS011;3226;42.162;24.756;2023-04-01T03:46:16;7.47;;;7.17;;
6386;SDS011;3226;42.162;24.756;2023-04-01T03:48:45;7.37;;;7.07;;
6386;SDS011;3226;42.162;24.756;2023-04-01T03:51:13;8.60;;;8.20;;
6386;SDS011;3226;42.162;24.756;2023-04-01T03:53:41;7.50;;;7.20;;
6386;SDS011;3226;42.162;24.756;2023-04-01T03:56:09;7.10;;;6.80;;
6386;SDS011;3226;42.162;24.756;2023-04-01T03:58:37;7.63;;;7.33;;
6386;SDS011;3226;42.162;24.756;2023-04-01T04:01:14;6.73;;;6.43;;
6386;SDS011;3226;42.162;24.756;2023-04-01T04:03:43;8.00;;;7.70;;
6386;SDS011;3226;42.162;24.756;2023-04-01T04:06:12;7.13;;;6.83;;
6386;SDS011;3226;42.162;24.756;2023-04-01T04:08:41;7.87;;;7.57;;
6386;SDS011;3226;42.162;24.756;2023-04-01T04:11:09;7.47;;;7.17;;
6386;SDS011;3226;42.162;24.756;2023-04-01T04:13:37;7.33;;;7.03;;
6386;SDS011;3226;42.162;24.756;2023-04-01T04:16:05;7.27;;;6.97;;
6386;SDS011;3226;42.162;24.756;2023-04-01T04:18:36;8.00;;;7.70;;
6386;SDS011;3226;42.162;24.756;2023-04-01T04:21:04;8.57;;;8.17;;
6386;SDS011;3226;42.162;24.756;2023-04-01T04:23:32;8.57;;;8.17;;
6386;SDS011;3226;42.162;24.756;2023-04-01T04:26:01;8.17;;;7.87;;
6386;SDS011;3226;42.162;24.756;2023-04-01T04:28:31;8.00;;;7.70;;
6386;SDS011;3226;42.162;24.756;2023-04-01T04:31:00;7.30;;;7.00;;
6386;SDS011;3226;42.162;24.756;2023-04-01T04:33:28;7.40;;;7.10;;
6386;SDS011;3226;42.162;24.756;2023-04-01T04:35:57;8.13;;;7.83;;
6386;SDS011;3226;42.162;24.756;2023-04-01T04:38:26;7.90;;;7.60;;
6386;SDS011;3226;42.162;24.756;2023-04-01T04:40:54;8.30;;;7.90;;
6386;SDS011;3226;42.162;24.756;2023-04-01T04:43:23;9.40;;;9.00;;
6386;SDS011;3226;42.162;24.756;2023-04-01T04:45:51;7.70;;;7.40;;
6386;SDS011;3226;42.162;24.756;2023-04-01T04:48:19;6.87;;;6.57;;
6386;SDS011;3226;42.162;24.756;2023-04-01T04:50:47;7.57;;;7.27;;
6386;SDS011;3226;42.162;24.756;2023-04-01T04:53:18;6.93;;;6.63;;
6386;SDS011;3226;42.162;24.756;2023-04-01T04:55:47;7.05;;;6.75;;
6386;SDS011;3226;42.162;24.756;2023-04-01T04:58:16;8.03;;;7.73;;
6386;SDS011;3226;42.162;24.756;2023-04-01T05:00:44;6.97;;;6.67;;
6386;SDS011;3226;42.162;24.756;2023-04-01T05:03:12;7.70;;;7.40;;
6386;SDS011;3226;42.162;24.756;2023-04-01T05:05:47;7.97;;;7.67;;
6386;SDS011;3226;42.162;24.756;2023-04-01T05:08:18;7.60;;;7.30;;
6386;SDS011;3226;42.162;24.756;2023-04-01T05:10:46;7.90;;;7.60;;
6386;SDS011;3226;42.162;24.756;2023-04-01T05:13:14;7.37;;;7.07;;
6386;SDS011;3226;42.162;24.756;2023-04-01T05:15:42;7.67;;;7.37;;
6386;SDS011;3226;42.162;24.756;2023-04-01T05:18:10;8.30;;;8.00;;
6386;SDS011;3226;42.162;24.756;2023-04-01T05:20:38;7.72;;;7.43;;
6386;SDS011;3226;42.162;24.756;2023-04-01T05:23:06;7.17;;;6.87;;
6386;SDS011;3226;42.162;24.756;2023-04-01T05:25:37;7.77;;;7.47;;
6386;SDS011;3226;42.162;24.756;2023-04-01T05:28:05;9.47;;;9.07;;
6386;SDS011;3226;42.162;24.756;2023-04-01T05:30:32;8.60;;;8.23;;
6386;SDS011;3226;42.162;24.756;2023-04-01T05:33:01;9.67;;;9.27;;
6386;SDS011;3226;42.162;24.756;2023-04-01T05:35:29;8.27;;;7.93;;
6386;SDS011;3226;42.162;24.756;2023-04-01T05:37:57;8.00;;;7.70;;
6386;SDS011;3226;42.162;24.756;2023-04-01T05:40:25;7.23;;;6.93;;
6386;SDS011;3226;42.162;24.756;2023-04-01T05:42:55;7.17;;;6.87;;
6386;SDS011;3226;42.162;24.756;2023-04-01T05:45:23;7.40;;;7.10;;
6386;SDS011;3226;42.162;24.756;2023-04-01T05:47:51;9.00;;;8.60;;
6386;SDS011;3226;42.162;24.756;2023-04-01T05:50:19;9.00;;;8.60;;
6386;SDS011;3226;42.162;24.756;2023-04-01T05:52:47;9.47;;;9.07;;
6386;SDS011;3226;42.162;24.756;2023-04-01T05:55:15;10.03;;;9.63;;
6386;SDS011;3226;42.162;24.756;2023-04-01T05:57:44;13.20;;;12.60;;
6386;SDS011;3226;42.162;24.756;2023-04-01T06:00:14;13.20;;;12.50;;
6386;SDS011;3226;42.162;24.756;2023-04-01T06:02:42;9.27;;;8.87;;
6386;SDS011;3226;42.162;24.756;2023-04-01T06:05:14;8.23;;;7.93;;
6386;SDS011;3226;42.162;24.756;2023-04-01T06:07:45;7.73;;;7.43;;
6386;SDS011;3226;42.162;24.756;2023-04-01T06:10:14;7.50;;;7.20;;
6386;SDS011;3226;42.162;24.756;2023-04-01T06:12:49;7.20;;;6.90;;
6386;SDS011;3226;42.162;24.756;2023-04-01T06:15:27;7.17;;;6.87;;
6386;SDS011;3226;42.162;24.756;2023-04-01T06:18:07;6.30;;;6.03;;
6386;SDS011;3226;42.162;24.756;2023-04-01T06:20:58;7.70;;;7.40;;
6386;SDS011;3226;42.162;24.756;2023-04-01T06:23:40;8.83;;;8.43;;
6386;SDS011;3226;42.162;24.756;2023-04-01T06:26:24;8.80;;;8.40;;
6386;SDS011;3226;42.162;24.756;2023-04-01T06:34:54;8.87;;;8.47;;
6386;SDS011;3226;42.162;24.756;2023-04-01T06:37:45;7.80;;;7.50;;
6386;SDS011;3226;42.162;24.756;2023-04-01T06:43:37;7.40;;;7.10;;
6386;SDS011;3226;42.162;24.756;2023-04-01T06:46:17;7.40;;;7.10;;
6386;SDS011;3226;42.162;24.756;2023-04-01T06:49:01;7.93;;;7.63;;
6386;SDS011;3226;42.162;24.756;2023-04-01T06:51:46;7.40;;;7.10;;
6386;SDS011;3226;42.162;24.756;2023-04-01T06:54:24;7.90;;;7.60;;
6386;SDS011;3226;42.162;24.756;2023-04-01T06:57:00;6.13;;;5.93;;
6386;SDS011;3226;42.162;24.756;2023-04-01T06:59:33;7.43;;;7.13;;
6386;SDS011;3226;42.162;24.756;2023-04-01T07:02:05;6.47;;;6.17;;
6386;SDS011;3226;42.162;24.756;2023-04-01T07:04:48;7.30;;;7.00;;
6386;SDS011;3226;42.162;24.756;2023-04-01T07:07:21;5.87;;;5.67;;
6386;SDS011;3226;42.162;24.756;2023-04-01T07:09:55;6.60;;;6.30;;
6386;SDS011;3226;42.162;24.756;2023-04-01T07:12:29;7.33;;;7.03;;
6386;SDS011;3226;42.162;24.756;2023-04-01T07:15:11;7.03;;;6.73;;
6386;SDS011;3226;42.162;24.756;2023-04-01T07:17:44;6.73;;;6.43;;
6386;SDS011;3226;42.162;24.756;2023-04-01T07:22:51;6.90;;;6.60;;
6386;SDS011;3226;42.162;24.756;2023-04-01T07:25:22;7.20;;;6.90;;
6386;SDS011;3226;42.162;24.756;2023-04-01T07:27:53;6.80;;;6.50;;
6386;SDS011;3226;42.162;24.756;2023-04-01T07:30:29;7.17;;;6.87;;
6386;SDS011;3226;42.162;24.756;2023-04-01T07:33:03;7.03;;;6.73;;
6386;SDS011;3226;42.162;24.756;2023-04-01T07:35:41;6.67;;;6.37;;
6386;SDS011;3226;42.162;24.756;2023-04-01T07:38:16;5.77;;;5.57;;
6386;SDS011;3226;42.162;24.756;2023-04-01T07:40:55;6.10;;;5.90;;
6386;SDS011;3226;42.162;24.756;2023-04-01T07:43:34;6.73;;;6.43;;
6386;SDS011;3226;42.162;24.756;2023-04-01T07:46:19;6.97;;;6.67;;
6386;SDS011;3226;42.162;24.756;2023-04-01T07:48:58;6.70;;;6.40;;
6386;SDS011;3226;42.162;24.756;2023-04-01T07:51:34;6.20;;;5.97;;
6386;SDS011;3226;42.162;24.756;2023-04-01T07:54:13;5.80;;;5.60;;
6386;SDS011;3226;42.162;24.756;2023-04-01T07:56:49;7.80;;;7.10;;
6386;SDS011;3226;42.162;24.756;2023-04-01T07:59:26;6.73;;;6.43;;
6386;SDS011;3226;42.162;24.756;2023-04-01T08:02:06;5.97;;;5.77;;
6386;SDS011;3226;42.162;24.756;2023-04-01T08:04:51;7.20;;;6.90;;
6386;SDS011;3226;42.162;24.756;2023-04-01T08:07:30;8.67;;;8.27;;
6386;SDS011;3226;42.162;24.756;2023-04-01T08:10:10;6.67;;;6.37;;
6386;SDS011;3226;42.162;24.756;2023-04-01T08:12:43;6.60;;;6.30;;
6386;SDS011;3226;42.162;24.756;2023-04-01T08:15:21;6.50;;;6.20;;
6386;SDS011;3226;42.162;24.756;2023-04-01T08:17:56;7.67;;;7.37;;
6386;SDS011;3226;42.162;24.756;2023-04-01T08:20:33;8.17;;;7.87;;
6386;SDS011;3226;42.162;24.756;2023-04-01T08:23:09;6.83;;;6.53;;
6386;SDS011;3226;42.162;24.756;2023-04-01T08:25:40;7.93;;;7.63;;
6386;SDS011;3226;42.162;24.756;2023-04-01T08:28:15;6.83;;;6.53;;
6386;SDS011;3226;42.162;24.756;2023-04-01T08:30:48;6.13;;;5.93;;
6386;SDS011;3226;42.162;24.756;2023-04-01T08:33:21;7.80;;;7.50;;
6386;SDS011;3226;42.162;24.756;2023-04-01T08:35:54;6.97;;;6.67;;
6386;SDS011;3226;42.162;24.756;2023-04-01T08:38:28;7.23;;;6.93;;
6386;SDS011;3226;42.162;24.756;2023-04-01T08:41:01;8.20;;;7.90;;
6386;SDS011;3226;42.162;24.756;2023-04-01T08:47:08;7.23;;;6.93;;
6386;SDS011;3226;42.162;24.756;2023-04-01T08:49:51;7.60;;;7.30;;
6386;SDS011;3226;42.162;24.756;2023-04-01T08:52:35;7.17;;;6.87;;
6386;SDS011;3226;42.162;24.756;2023-04-01T08:55:13;6.27;;;6.07;;
6386;SDS011;3226;42.162;24.756;2023-04-01T08:57:56;6.43;;;6.17;;
6386;SDS011;3226;42.162;24.756;2023-04-01T09:00:36;6.73;;;6.43;;
6386;SDS011;3226;42.162;24.756;2023-04-01T09:03:21;5.70;;;5.50;;
6386;SDS011;3226;42.162;24.756;2023-04-01T09:09:09;6.40;;;6.10;;
6386;SDS011;3226;42.162;24.756;2023-04-01T09:15:16;6.07;;;5.87;;
6386;SDS011;3226;42.162;24.756;2023-04-01T09:18:06;6.97;;;6.67;;
6386;SDS011;3226;42.162;24.756;2023-04-01T09:20:44;6.50;;;6.20;;
6386;SDS011;3226;42.162;24.756;2023-04-01T09:23:29;6.10;;;5.90;;
6386;SDS011;3226;42.162;24.756;2023-04-01T09:26:22;6.50;;;6.20;;
6386;SDS011;3226;42.162;24.756;2023-04-01T09:29:13;6.60;;;6.30;;
6386;SDS011;3226;42.162;24.756;2023-04-01T09:32:01;6.60;;;6.30;;
6386;SDS011;3226;42.162;24.756;2023-04-01T09:34:54;6.17;;;5.97;;
6386;SDS011;3226;42.162;24.756;2023-04-01T09:37:34;5.73;;;5.53;;
6386;SDS011;3226;42.162;24.756;2023-04-01T09:40:15;6.80;;;6.50;;
6386;SDS011;3226;42.162;24.756;2023-04-01T09:42:49;7.13;;;6.83;;
6386;SDS011;3226;42.162;24.756;2023-04-01T09:45:35;7.97;;;7.60;;
6386;SDS011;3226;42.162;24.756;2023-04-01T09:48:14;5.77;;;5.57;;
6386;SDS011;3226;42.162;24.756;2023-04-01T09:51:17;6.80;;;6.50;;
6386;SDS011;3226;42.162;24.756;2023-04-01T09:53:57;5.97;;;5.77;;
6386;SDS011;3226;42.162;24.756;2023-04-01T09:59:49;6.57;;;6.27;;
6386;SDS011;3226;42.162;24.756;2023-04-01T10:06:02;5.87;;;5.67;;
6386;SDS011;3226;42.162;24.756;2023-04-01T10:12:35;5.70;;;5.50;;
6386;SDS011;3226;42.162;24.756;2023-04-01T10:15:29;5.47;;;5.27;;
6386;SDS011;3226;42.162;24.756;2023-04-01T10:21:29;5.70;;;5.50;;
6386;SDS011;3226;42.162;24.756;2023-04-01T10:24:23;6.27;;;6.03;;
6386;SDS011;3226;42.162;24.756;2023-04-01T10:27:25;6.10;;;5.90;;
6386;SDS011;3226;42.162;24.756;2023-04-01T10:36:49;5.97;;;5.77;;
6386;SDS011;3226;42.162;24.756;2023-04-01T10:39:22;6.00;;;5.80;;
6386;SDS011;3226;42.162;24.756;2023-04-01T10:42:07;5.87;;;5.67;;
6386;SDS011;3226;42.162;24.756;2023-04-01T10:45:32;6.53;;;6.23;;
6386;SDS011;3226;42.162;24.756;2023-04-01T10:51:25;6.00;;;5.80;;
6386;SDS011;3226;42.162;24.756;2023-04-01T10:57:20;6.63;;;6.33;;
6386;SDS011;3226;42.162;24.756;2023-04-01T11:12:40;6.13;;;5.93;;
6386;SDS011;3226;42.162;24.756;2023-04-01T11:24:35;7.97;;;7.67;;
6386;SDS011;3226;42.162;24.756;2023-04-01T11:27:22;6.30;;;6.07;;
6386;SDS011;3226;42.162;24.756;2023-04-01T11:30:09;7.13;;;6.83;;
6386;SDS011;3226;42.162;24.756;2023-04-01T11:32:43;6.67;;;6.37;;
6386;SDS011;3226;42.162;24.756;2023-04-01T11:38:19;6.07;;;5.87;;
6386;SDS011;3226;42.162;24.756;2023-04-01T11:40:58;6.93;;;6.63;;
6386;SDS011;3226;42.162;24.756;2023-04-01T11:43:37;5.93;;;5.73;;
6386;SDS011;3226;42.162;24.756;2023-04-01T11:46:15;6.50;;;6.20;;
6386;SDS011;3226;42.162;24.756;2023-04-01T11:48:55;5.97;;;5.77;;
6386;SDS011;3226;42.162;24.756;2023-04-01T11:51:47;7.13;;;6.63;;
6386;SDS011;3226;42.162;24.756;2023-04-01T11:54:40;8.07;;;7.77;;
6386;SDS011;3226;42.162;24.756;2023-04-01T12:00:43;5.80;;;5.60;;
6386;SDS011;3226;42.162;24.756;2023-04-01T12:03:33;6.90;;;6.60;;
6386;SDS011;3226;42.162;24.756;2023-04-01T12:06:16;7.07;;;6.77;;
6386;SDS011;3226;42.162;24.756;2023-04-01T12:08:50;7.23;;;6.93;;
6386;SDS011;3226;42.162;24.756;2023-04-01T12:11:29;6.93;;;6.63;;
6386;SDS011;3226;42.162;24.756;2023-04-01T12:14:05;7.27;;;6.97;;
6386;SDS011;3226;42.162;24.756;2023-04-01T12:16:43;6.87;;;6.57;;
6386;SDS011;3226;42.162;24.756;2023-04-01T12:19:23;7.20;;;6.90;;
6386;SDS011;3226;42.162;24.756;2023-04-01T12:22:00;6.30;;;6.07;;
6386;SDS011;3226;42.162;24.756;2023-04-01T12:24:43;7.73;;;7.43;;
6386;SDS011;3226;42.162;24.756;2023-04-01T12:27:24;6.70;;;6.40;;
6386;SDS011;3226;42.162;24.756;2023-04-01T12:30:23;5.93;;;5.73;;
6386;SDS011;3226;42.162;24.756;2023-04-01T12:33:20;6.60;;;6.30;;
6386;SDS011;3226;42.162;24.756;2023-04-01T12:36:11;7.20;;;6.90;;
6386;SDS011;3226;42.162;24.756;2023-04-01T12:39:00;6.50;;;6.20;;
6386;SDS011;3226;42.162;24.756;2023-04-01T12:42:04;7.30;;;7.00;;
6386;SDS011;3226;42.162;24.756;2023-04-01T12:44:45;6.73;;;6.43;;
6386;SDS011;3226;42.162;24.756;2023-04-01T12:47:29;7.70;;;7.40;;
6386;SDS011;3226;42.162;24.756;2023-04-01T12:50:19;7.13;;;6.83;;
6386;SDS011;3226;42.162;24.756;2023-04-01T12:52:59;7.03;;;6.73;;
6386;SDS011;3226;42.162;24.756;2023-04-01T12:55:40;7.00;;;6.70;;
6386;SDS011;3226;42.162;24.756;2023-04-01T12:58:19;7.83;;;7.53;;
6386;SDS011;3226;42.162;24.756;2023-04-01T13:01:16;8.50;;;8.10;;
6386;SDS011;3226;42.162;24.756;2023-04-01T13:04:00;7.23;;;6.93;;
6386;SDS011;3226;42.162;24.756;2023-04-01T13:10:13;7.57;;;7.27;;
6386;SDS011;3226;42.162;24.756;2023-04-01T13:12:59;7.40;;;7.10;;
6386;SDS011;3226;42.162;24.756;2023-04-01T13:15:40;8.03;;;7.73;;
6386;SDS011;3226;42.162;24.756;2023-04-01T13:18:17;9.97;;;9.50;;
6386;SDS011;3226;42.162;24.756;2023-04-01T13:20:57;8.50;;;8.10;;
6386;SDS011;3226;42.162;24.756;2023-04-01T13:23:35;6.90;;;6.60;;
6386;SDS011;3226;42.162;24.756;2023-04-01T13:26:17;8.70;;;8.30;;
6386;SDS011;3226;42.162;24.756;2023-04-01T13:28:50;7.57;;;7.27;;
6386;SDS011;3226;42.162;24.756;2023-04-01T13:31:25;8.23;;;7.93;;
6386;SDS011;3226;42.162;24.756;2023-04-01T13:34:12;6.17;;;5.93;;
6386;SDS011;3226;42.162;24.756;2023-04-01T13:36:53;8.50;;;8.10;;
6386;SDS011;3226;42.162;24.756;2023-04-01T13:39:36;7.03;;;6.73;;
6386;SDS011;3226;42.162;24.756;2023-04-01T13:42:18;5.93;;;5.73;;
6386;SDS011;3226;42.162;24.756;2023-04-01T13:44:54;6.57;;;6.27;;
6386;SDS011;3226;42.162;24.756;2023-04-01T13:50:45;6.63;;;6.33;;
6386;SDS011;3226;42.162;24.756;2023-04-01T13:53:43;6.77;;;6.47;;
6386;SDS011;3226;42.162;24.756;2023-04-01T13:56:29;7.00;;;6.70;;
6386;SDS011;3226;42.162;24.756;2023-04-01T13:59:17;5.60;;;5.40;;
6386;SDS011;3226;42.162;24.756;2023-04-01T14:01:59;7.80;;;7.40;;
6386;SDS011;3226;42.162;24.756;2023-04-01T14:04:49;6.27;;;6.03;;
6386;SDS011;3226;42.162;24.756;2023-04-01T14:07:35;6.10;;;5.90;;
6386;SDS011;3226;42.162;24.756;2023-04-01T14:10:18;6.53;;;6.23;;
6386;SDS011;3226;42.162;24.756;2023-04-01T14:12:56;6.03;;;5.83;;
6386;SDS011;3226;42.162;24.756;2023-04-01T14:15:34;6.57;;;6.27;;
6386;SDS011;3226;42.162;24.756;2023-04-01T14:18:13;6.27;;;6.03;;
6386;SDS011;3226;42.162;24.756;2023-04-01T14:20:53;5.80;;;5.60;;
6386;SDS011;3226;42.162;24.756;2023-04-01T14:23:37;6.03;;;5.83;;
6386;SDS011;3226;42.162;24.756;2023-04-01T14:26:16;6.07;;;5.87;;
6386;SDS011;3226;42.162;24.756;2023-04-01T14:28:55;6.37;;;6.10;;
6386;SDS011;3226;42.162;24.756;2023-04-01T14:31:44;5.70;;;5.50;;
6386;SDS011;3226;42.162;24.756;2023-04-01T14:34:24;6.43;;;6.13;;
6386;SDS011;3226;42.162;24.756;2023-04-01T14:37:16;5.97;;;5.77;;
6386;SDS011;3226;42.162;24.756;2023-04-01T14:49:02;5.97;;;5.77;;
6386;SDS011;3226;42.162;24.756;2023-04-01T14:51:33;7.10;;;6.80;;
6386;SDS011;3226;42.162;24.756;2023-04-01T14:54:04;6.23;;;6.03;;
6386;SDS011;3226;42.162;24.756;2023-04-01T14:56:40;6.47;;;6.17;;
6386;SDS011;3226;42.162;24.756;2023-04-01T14:59:25;5.60;;;5.40;;
6386;SDS011;3226;42.162;24.756;2023-04-01T15:01:57;7.47;;;7.17;;
6386;SDS011;3226;42.162;24.756;2023-04-01T15:07:35;6.83;;;6.53;;
6386;SDS011;3226;42.162;24.756;2023-04-01T15:10:31;7.00;;;6.70;;
6386;SDS011;3226;42.162;24.756;2023-04-01T15:13:24;5.80;;;5.60;;
6386;SDS011;3226;42.162;24.756;2023-04-01T15:16:17;5.83;;;5.63;;
6386;SDS011;3226;42.162;24.756;2023-04-01T15:18:53;5.70;;;5.50;;
6386;SDS011;3226;42.162;24.756;2023-04-01T15:24:28;5.30;;;5.10;;
6386;SDS011;3226;42.162;24.756;2023-04-01T15:27:16;6.50;;;6.20;;
6386;SDS011;3226;42.162;24.756;2023-04-01T15:30:03;5.73;;;5.53;;
6386;SDS011;3226;42.162;24.756;2023-04-01T15:32:48;5.83;;;5.63;;
6386;SDS011;3226;42.162;24.756;2023-04-01T15:35:30;5.90;;;5.70;;
6386;SDS011;3226;42.162;24.756;2023-04-01T15:38:10;6.60;;;6.30;;
6386;SDS011;3226;42.162;24.756;2023-04-01T15:40:51;5.83;;;5.63;;
6386;SDS011;3226;42.162;24.756;2023-04-01T15:43:27;5.90;;;5.70;;
6386;SDS011;3226;42.162;24.756;2023-04-01T15:49:20;5.63;;;5.43;;
6386;SDS011;3226;42.162;24.756;2023-04-01T15:51:58;5.93;;;5.73;;
6386;SDS011;3226;42.162;24.756;2023-04-01T15:54:56;5.83;;;5.63;;
6386;SDS011;3226;42.162;24.756;2023-04-01T15:57:39;5.50;;;5.30;;
6386;SDS011;3226;42.162;24.756;2023-04-01T16:00:23;5.57;;;5.37;;
6386;SDS011;3226;42.162;24.756;2023-04-01T16:03:00;6.30;;;6.07;;
6386;SDS011;3226;42.162;24.756;2023-04-01T16:05:55;6.57;;;6.27;;
6386;SDS011;3226;42.162;24.756;2023-04-01T16:08:45;7.43;;;7.13;;
6386;SDS011;3226;42.162;24.756;2023-04-01T16:11:34;5.90;;;5.70;;
6386;SDS011;3226;42.162;24.756;2023-04-01T16:14:14;5.77;;;5.57;;
6386;SDS011;3226;42.162;24.756;2023-04-01T16:16:56;5.40;;;5.20;;
6386;SDS011;3226;42.162;24.756;2023-04-01T16:19:35;6.17;;;5.97;;
6386;SDS011;3226;42.162;24.756;2023-04-01T16:22:10;6.00;;;5.80;;
6386;SDS011;3226;42.162;24.756;2023-04-01T16:24:43;6.53;;;6.23;;
6386;SDS011;3226;42.162;24.756;2023-04-01T16:27:18;6.27;;;6.03;;
6386;SDS011;3226;42.162;24.756;2023-04-01T16:29:53;5.97;;;5.77;;
6386;SDS011;3226;42.162;24.756;2023-04-01T16:32:29;5.97;;;5.77;;
6386;SDS011;3226;42.162;24.756;2023-04-01T16:35:15;6.50;;;6.20;;
6386;SDS011;3226;42.162;24.756;2023-04-01T16:37:50;5.37;;;5.17;;
6386;SDS011;3226;42.162;24.756;2023-04-01T16:40:24;6.00;;;5.80;;
6386;SDS011;3226;42.162;24.756;2023-04-01T16:43:10;5.43;;;5.23;;
6386;SDS011;3226;42.162;24.756;2023-04-01T16:45:42;5.37;;;5.17;;
6386;SDS011;3226;42.162;24.756;2023-04-01T16:48:14;6.17;;;5.97;;
6386;SDS011;3226;42.162;24.756;2023-04-01T16:50:52;6.10;;;5.90;;
6386;SDS011;3226;42.162;24.756;2023-04-01T16:53:30;5.97;;;5.77;;
6386;SDS011;3226;42.162;24.756;2023-04-01T16:56:10;5.77;;;5.57;;
6386;SDS011;3226;42.162;24.756;2023-04-01T16:58:43;6.70;;;6.40;;
6386;SDS011;3226;42.162;24.756;2023-04-01T17:01:24;7.80;;;7.50;;
6386;SDS011;3226;42.162;24.756;2023-04-01T17:03:57;6.37;;;6.10;;
6386;SDS011;3226;42.162;24.756;2023-04-01T17:06:34;7.70;;;7.40;;
6386;SDS011;3226;42.162;24.756;2023-04-01T17:09:24;6.90;;;6.60;;
6386;SDS011;3226;42.162;24.756;2023-04-01T17:12:06;6.37;;;6.10;;
6386;SDS011;3226;42.162;24.756;2023-04-01T17:14:43;6.07;;;5.87;;
6386;SDS011;3226;42.162;24.756;2023-04-01T17:17:23;5.67;;;5.47;;
6386;SDS011;3226;42.162;24.756;2023-04-01T17:20:02;5.40;;;5.20;;
6386;SDS011;3226;42.162;24.756;2023-04-01T17:22:44;7.30;;;6.60;;
6386;SDS011;3226;42.162;24.756;2023-04-01T17:25:30;6.17;;;5.97;;
6386;SDS011;3226;42.162;24.756;2023-04-01T17:28:09;7.10;;;6.80;;
6386;SDS011;3226;42.162;24.756;2023-04-01T17:30:49;5.80;;;5.60;;
6386;SDS011;3226;42.162;24.756;2023-04-01T17:33:29;5.77;;;5.57;;
6386;SDS011;3226;42.162;24.756;2023-04-01T17:36:16;6.60;;;6.30;;
6386;SDS011;3226;42.162;24.756;2023-04-01T17:39:01;7.57;;;7.27;;
6386;SDS011;3226;42.162;24.756;2023-04-01T17:41:46;5.97;;;5.77;;
6386;SDS011;3226;42.162;24.756;2023-04-01T17:44:21;5.93;;;5.73;;